M I D A S
Marine Information and Data Acquisition System
Tripno 2107 of the Zeeleeuw from 2011-05-23 06:25:37 to 2011-05-23 16:36:08
Back to CruiseResearch ActivitiesStationsMapUnderway DataData graphs

EquipmentUnitsComment
TimeDGPSUTC
LatitudeDGPSDM.mWGS84
LongitudeDGPSDM.mWGS84
HeadingGyrodeg 
SOGDGPSknotsSpeed over ground
COGDGPSdegCourse over ground
DepthEcho soundermeters200 kHz
Missing or incorrect values are displayed as -999
Navigation data collected by the RV Zeeleeuw from 2011-05-23 06:20:28 to 2011-05-23 16:52:40
Time Latitude Longitude Heading SOG COG Depth
2011-05-23 06:21:36 51°13.665 2°55.912 115.1 4.9 295 -999
2011-05-23 06:22:35 51°13.69 2°55.812 101.8 3.5 286 12.4
2011-05-23 06:23:33 51°13.695 2°55.741 74.6 1.9 263 13.9
2011-05-23 06:24:33 51°13.698 2°55.73 36.6 0.8 7 14.1
2011-05-23 06:25:32 51°13.733 2°55.718 338.3 3.9 334 13.5
2011-05-23 06:26:32 51°13.813 2°55.644 335.7 6.8 332 13
2011-05-23 06:27:32 51°13.938 2°55.558 340 9 338 12.7
2011-05-23 06:28:33 51°14.085 2°55.452 337.9 9.8 336 12.4
2011-05-23 06:29:32 51°14.233 2°55.343 335 10.1 331 12.2
2011-05-23 06:30:35 51°14.389 2°55.18 327.6 11.2 325 -999
2011-05-23 06:31:34 51°14.559 2°55.015 333.2 12.8 331 13.5
2011-05-23 06:32:32 51°14.758 2°54.904 344.8 13.4 346 11.6
2011-05-23 06:33:33 51°14.974 2°54.799 341.2 13.3 344 11.1
2011-05-23 06:34:32 51°15.184 2°54.701 342 13.4 345 10.2
2011-05-23 06:35:32 51°15.402 2°54.618 343.2 13.3 343 11.2
2011-05-23 06:36:32 51°15.613 2°54.515 343.4 13.2 343 11.7
2011-05-23 06:37:32 51°15.827 2°54.429 346.3 13.3 345 12.1
2011-05-23 06:38:33 51°16.004 2°54.327 334.7 9 339 12.4
2011-05-23 06:39:32 51°16.124 2°54.267 337.9 7.1 345 12.7
2011-05-23 06:40:33 51°16.224 2°54.244 349.5 4.8 356 13
2011-05-23 06:41:32 51°16.274 2°54.239 341.3 1.4 20 13
2011-05-23 06:42:33 51°16.282 2°54.263 346.3 1.1 62 12.9
2011-05-23 06:43:33 51°16.292 2°54.287 355 1.1 55 12.9
2011-05-23 06:44:32 51°16.304 2°54.311 355.7 1.2 51 13
2011-05-23 06:45:32 51°16.316 2°54.334 350.9 1.2 48 12.9
2011-05-23 06:46:32 51°16.329 2°54.357 344 1.2 45 13
2011-05-23 06:47:32 51°16.342 2°54.379 336 1.1 44 13
2011-05-23 06:48:32 51°16.356 2°54.398 329.6 1.1 43 12.9
2011-05-23 06:49:32 51°16.37 2°54.419 328.2 1.2 44 12.8
2011-05-23 06:50:32 51°16.383 2°54.442 328.7 1.1 48 12.8
2011-05-23 06:51:32 51°16.401 2°54.459 323.7 1.7 355 12.6
2011-05-23 06:52:32 51°16.422 2°54.423 271.3 2.2 280 12.9
2011-05-23 06:53:32 51°16.404 2°54.374 211.2 2.8 207 12.9
2011-05-23 06:54:32 51°16.304 2°54.292 213.4 8.6 213 12.8
2011-05-23 06:55:32 51°16.202 2°54.124 233.9 7.1 234 12.6
2011-05-23 06:56:33 51°16.192 2°54.033 287.7 1.7 315 12.8
2011-05-23 06:57:32 51°16.209 2°54.032 325.1 1.1 13 12.9
2011-05-23 06:58:32 51°16.227 2°54.041 331.2 1.1 26 12.9
2011-05-23 06:59:32 51°16.243 2°54.054 326.4 1 30 12.8
2011-05-23 07:00:32 51°16.256 2°54.068 326.1 1 35 12.8
2011-05-23 07:01:32 51°16.27 2°54.083 325 1 37 12.7
2011-05-23 07:02:32 51°16.283 2°54.1 324.8 0.9 36 12.8
2011-05-23 07:03:32 51°16.296 2°54.116 325.2 0.9 43 12.7
2011-05-23 07:04:32 51°16.309 2°54.134 326.6 0.9 41 12.7
2011-05-23 07:05:32 51°16.321 2°54.15 323.2 0.9 41 12.6
2011-05-23 07:06:32 51°16.334 2°54.166 322.8 0.9 43 12.6
2011-05-23 07:07:32 51°16.345 2°54.184 324.2 1 43 12.7
2011-05-23 07:08:32 51°16.356 2°54.203 325.7 1 48 12.6
2011-05-23 07:09:32 51°16.366 2°54.222 326.9 0.9 48 12.7
2011-05-23 07:10:32 51°16.377 2°54.241 329.9 0.9 50 12.6
2011-05-23 07:11:32 51°16.387 2°54.259 331.2 1 49 12.8
2011-05-23 07:12:32 51°16.396 2°54.279 332.4 0.9 52 12.8
2011-05-23 07:13:32 51°16.406 2°54.297 334 1 49 12.7
2011-05-23 07:14:32 51°16.416 2°54.316 334.3 1 49 12.8
2011-05-23 07:15:33 51°16.427 2°54.334 331.7 0.9 46 12.5
2011-05-23 07:16:32 51°16.448 2°54.34 338.6 2.6 351 12.7
2011-05-23 07:17:33 51°16.51 2°54.348 356.5 4 355 12.8
2011-05-23 07:18:32 51°16.575 2°54.264 301 7.9 302 12.9
2011-05-23 07:19:32 51°16.666 2°54.036 301.2 11.6 303 12.7
2011-05-23 07:20:32 51°16.765 2°53.744 296 12.9 297 12.6
2011-05-23 07:21:32 51°16.873 2°53.447 302.5 12.9 305 11.9
2011-05-23 07:22:32 51°16.998 2°53.174 301.4 12.8 303 9.5
2011-05-23 07:23:32 51°17.102 2°52.875 296.2 13 299 11
2011-05-23 07:24:33 51°17.213 2°52.572 301.9 13 303 10.9
2011-05-23 07:25:33 51°17.349 2°52.303 315.5 13.2 316 11.7
2011-05-23 07:26:32 51°17.51 2°52.069 317.5 13.3 317 12.6
2011-05-23 07:27:32 51°17.665 2°51.824 313.1 13.2 314 11.1
2011-05-23 07:28:32 51°17.828 2°51.588 321.8 13.3 323 11.6
2011-05-23 07:29:32 51°17.999 2°51.368 319.9 13.3 319 12.2
2011-05-23 07:30:32 51°18.167 2°51.136 319 13.3 319 13.7
2011-05-23 07:31:32 51°18.339 2°50.92 328.6 12.3 329 14.3
2011-05-23 07:32:32 51°18.454 2°50.852 352.8 3.9 356 15
2011-05-23 07:33:32 51°18.479 2°50.858 352.7 0.7 44 15
2011-05-23 07:34:32 51°18.489 2°50.871 354.2 0.8 33 15.1
2011-05-23 07:35:33 51°18.502 2°50.885 350.2 0.9 32 15.1
2011-05-23 07:36:32 51°18.514 2°50.897 341.9 1 31 15.1
2011-05-23 07:37:32 51°18.527 2°50.909 337.4 0.9 32 15.3
2011-05-23 07:38:32 51°18.538 2°50.919 333.5 0.8 28 15.1
2011-05-23 07:39:32 51°18.55 2°50.93 329.6 0.9 33 15.5
2011-05-23 07:40:32 51°18.562 2°50.942 327.6 0.9 34 15.3
2011-05-23 07:41:32 51°18.574 2°50.954 328.2 0.8 39 15.1
2011-05-23 07:42:32 51°18.585 2°50.967 331.7 0.8 33 15.1
2011-05-23 07:43:33 51°18.595 2°50.979 332.3 0.8 35 15.3
2011-05-23 07:44:32 51°18.606 2°50.992 331.9 0.8 37 15.2
2011-05-23 07:45:33 51°18.617 2°51.004 328.4 0.7 36 15.2
2011-05-23 07:46:32 51°18.627 2°51.017 326.1 0.8 43 15.2
2011-05-23 07:47:32 51°18.638 2°51.032 330.7 0.9 50 15.1
2011-05-23 07:48:32 51°18.647 2°51.047 337.4 0.7 42 15.4
2011-05-23 07:49:32 51°18.655 2°51.06 338.5 0.7 43 15.3
2011-05-23 07:50:32 51°18.663 2°51.073 337.9 0.7 50 15.1
2011-05-23 07:51:32 51°18.673 2°51.086 343.8 1.4 10 15.1
2011-05-23 07:52:32 51°18.721 2°51.112 41.5 3.8 42 15.4
2011-05-23 07:53:32 51°18.73 2°51.203 118.4 3.5 117 15.3
2011-05-23 07:54:32 51°18.676 2°51.255 170.7 5.3 170 15.1
2011-05-23 07:55:32 51°18.553 2°51.212 202.1 9.5 204 14.6
2011-05-23 07:56:32 51°18.406 2°51.077 209.5 9.6 215 14.6
2011-05-23 07:57:32 51°18.362 2°50.954 260.4 3 270 14.2
2011-05-23 07:58:32 51°18.374 2°50.917 308 0.9 345 14.5
2011-05-23 07:59:32 51°18.39 2°50.919 337.1 1 20 14.3
2011-05-23 08:00:32 51°18.405 2°50.925 342.3 0.9 12 14.4
2011-05-23 08:01:32 51°18.419 2°50.93 335.8 0.8 15 14.5
2011-05-23 08:02:32 51°18.43 2°50.935 330 0.7 19 14.6
2011-05-23 08:03:32 51°18.442 2°50.942 329.2 0.7 28 14.4
2011-05-23 08:04:32 51°18.452 2°50.951 331.6 0.7 28 14.6
2011-05-23 08:05:32 51°18.462 2°50.958 332.6 0.6 21 14.5
2011-05-23 08:06:32 51°18.473 2°50.965 333.2 0.6 22 14.4
2011-05-23 08:07:32 51°18.484 2°50.972 331.5 0.8 1 14.4
2011-05-23 08:08:32 51°18.511 2°50.958 337.3 3 346 14.9
2011-05-23 08:09:32 51°18.58 2°50.969 26.6 5 27 14.7
2011-05-23 08:10:32 51°18.633 2°51.084 71 7.5 68 14.8
2011-05-23 08:11:32 51°18.691 2°51.32 73.7 10.4 72 14.8
2011-05-23 08:12:32 51°18.751 2°51.615 73.5 12.6 69 14.5
2011-05-23 08:13:32 51°18.818 2°51.93 74.6 12.7 70 14.2
2011-05-23 08:14:32 51°18.893 2°52.247 71.6 12.9 71 13.6
2011-05-23 08:15:32 51°18.969 2°52.56 72.7 12.6 68 13.2
2011-05-23 08:16:32 51°19.037 2°52.88 76.1 12.9 72 12.7
2011-05-23 08:17:32 51°19.104 2°53.203 74.2 12.8 71 12.6
2011-05-23 08:18:32 51°19.179 2°53.515 70.3 12.5 70 12.6
2011-05-23 08:19:32 51°19.242 2°53.837 79.9 12.8 77 12.7
2011-05-23 08:20:32 51°19.295 2°54.159 77 12.4 74 12.6
2011-05-23 08:21:32 51°19.341 2°54.48 80.4 12.4 79 12.4
2011-05-23 08:22:32 51°19.389 2°54.801 78.4 12.4 74 12.4
2011-05-23 08:23:32 51°19.451 2°55.115 72.7 12.4 73 12.3
2011-05-23 08:24:32 51°19.512 2°55.43 73.2 12.4 73 12.3
2011-05-23 08:25:32 51°19.584 2°55.743 71.9 12.6 68 12
2011-05-23 08:26:32 51°19.646 2°56.06 78.8 12.6 75 12
2011-05-23 08:27:32 51°19.701 2°56.383 78 12.7 76 11.8
2011-05-23 08:28:32 51°19.758 2°56.7 74.1 12.5 71 11.7
2011-05-23 08:29:32 51°19.819 2°57.015 77.9 12.5 76 11.6
2011-05-23 08:30:32 51°19.859 2°57.337 82.1 12.2 80 11.5
2011-05-23 08:31:32 51°19.904 2°57.661 79.2 12.5 77 11.4
2011-05-23 08:32:32 51°19.957 2°57.977 77.8 12.5 77 11.2
2011-05-23 08:33:32 51°20.003 2°58.303 78.5 12.7 76 11
2011-05-23 08:34:32 51°20.056 2°58.626 77.8 12.7 75 10.8
2011-05-23 08:35:32 51°20.101 2°58.948 79.8 12.1 78 10.6
2011-05-23 08:36:32 51°20.145 2°59.267 79.8 12.2 78 10.5
2011-05-23 08:37:32 51°20.194 2°59.583 75 12.3 73 10.3
2011-05-23 08:38:32 51°20.241 2°59.898 76 12.1 71 10.2
2011-05-23 08:39:32 51°20.298 3°0.212 75.7 12.4 74 10.1
2011-05-23 08:40:32 51°20.343 3°0.533 78.5 12.3 78 10
2011-05-23 08:41:32 51°20.388 3°0.852 79.2 12 78 9.7
2011-05-23 08:42:32 51°20.443 3°1.167 77.8 12.2 73 9.6
2011-05-23 08:43:32 51°20.495 3°1.481 75.2 12.1 73 9.5
2011-05-23 08:44:32 51°20.547 3°1.793 80.3 12.4 81 9.5
2011-05-23 08:45:32 51°20.593 3°2.109 75 11.6 76 9.4
2011-05-23 08:46:32 51°20.628 3°2.375 79.3 8.5 77 9.7
2011-05-23 08:47:32 51°20.678 3°2.515 40.2 4.8 21 9.9
2011-05-23 08:48:32 51°20.735 3°2.506 344.9 1.3 326 10
2011-05-23 08:49:32 51°20.737 3°2.501 342.7 0.2 267 10.1
2011-05-23 08:50:36 51°20.736 3°2.495 359.6 0.3 267 10.3
2011-05-23 08:51:33 51°20.738 3°2.488 4.4 0.1 322 9.8
2011-05-23 08:52:32 51°20.742 3°2.481 5.2 0.4 316 10.3
2011-05-23 08:53:32 51°20.747 3°2.475 359.6 0.4 322 10.2
2011-05-23 08:54:32 51°20.752 3°2.467 352.1 0.4 325 10.3
2011-05-23 08:55:32 51°20.757 3°2.456 347 0.4 310 10
2011-05-23 08:56:32 51°20.762 3°2.448 345.5 0.4 296 10.1
2011-05-23 08:57:32 51°20.764 3°2.44 348.6 0.3 297 10.2
2011-05-23 08:58:32 51°20.767 3°2.433 350.7 0.3 295 10.2
2011-05-23 08:59:32 51°20.769 3°2.425 352.3 0.3 290 10.1
2011-05-23 09:00:32 51°20.771 3°2.418 353.2 0.3 319 10.4
2011-05-23 09:01:32 51°20.774 3°2.41 353.6 0.4 295 10.1
2011-05-23 09:02:32 51°20.778 3°2.401 349.8 0.5 292 10.1
2011-05-23 09:03:32 51°20.781 3°2.391 347.1 0.5 296 10
2011-05-23 09:04:32 51°20.784 3°2.38 344.7 0.4 295 9.9
2011-05-23 09:05:32 51°20.788 3°2.371 343.3 0.4 290 10.2
2011-05-23 09:06:32 51°20.791 3°2.363 343.6 0.4 279 10
2011-05-23 09:07:32 51°20.793 3°2.353 345.6 0.6 313 10.1
2011-05-23 09:08:32 51°20.837 3°2.352 30.8 4.6 28 10.5
2011-05-23 09:09:32 51°20.887 3°2.517 80 9.5 78 10.2
2011-05-23 09:10:32 51°20.958 3°2.79 67.9 11.9 63 10.2
2011-05-23 09:11:32 51°21.031 3°3.085 71.8 12 67 9.8
2011-05-23 09:12:32 51°21.108 3°3.375 72.5 11.6 70 10.4
2011-05-23 09:13:32 51°21.17 3°3.675 73.8 11.9 71 10.4
2011-05-23 09:14:32 51°21.235 3°3.971 72.6 11.9 69 10.2
2011-05-23 09:15:32 51°21.312 3°4.259 69.5 11.9 67 10.5
2011-05-23 09:16:32 51°21.388 3°4.547 73.1 11.8 71 10.5
2011-05-23 09:17:32 51°21.457 3°4.84 73.6 11.8 70 10.5
2011-05-23 09:18:32 51°21.529 3°5.132 71 11.6 68 10.5
2011-05-23 09:19:32 51°21.598 3°5.418 72.7 11.6 69 10.7
2011-05-23 09:20:32 51°21.666 3°5.708 71.7 11.7 68 10.8
2011-05-23 09:21:32 51°21.723 3°6.001 76.5 11.5 77 10.9
2011-05-23 09:22:32 51°21.77 3°6.294 77 11.4 75 11.1
2011-05-23 09:23:32 51°21.817 3°6.588 78.1 11.3 76 11.2
2011-05-23 09:24:32 51°21.874 3°6.875 75.2 11.2 72 11.2
2011-05-23 09:25:32 51°21.93 3°7.159 76.6 11 73 11.5
2011-05-23 09:26:32 51°21.981 3°7.443 77 11.4 74 11.5
2011-05-23 09:27:32 51°22.037 3°7.731 75.8 11.3 74 11.6
2011-05-23 09:28:32 51°22.075 3°8.025 83.4 11.3 82 11.7
2011-05-23 09:29:32 51°22.106 3°8.32 78.4 11.4 76 11.8
2011-05-23 09:30:32 51°22.125 3°8.622 84.4 11.3 85 12
2011-05-23 09:31:32 51°22.148 3°8.919 82.3 11.3 85 12.2
2011-05-23 09:32:32 51°22.167 3°9.219 85.1 11.2 87 12.3
2011-05-23 09:33:32 51°22.183 3°9.516 80.6 11.3 80 12.9
2011-05-23 09:34:32 51°22.212 3°9.809 81.1 11.2 81 13.4
2011-05-23 09:35:32 51°22.238 3°10.106 83 11.3 85 14
2011-05-23 09:36:32 51°22.259 3°10.406 82.3 11.3 83 14.9
2011-05-23 09:37:32 51°22.291 3°10.705 81.4 11.5 79 18.3
2011-05-23 09:38:32 51°22.314 3°10.999 85.7 11 83 16.2
2011-05-23 09:39:32 51°22.343 3°11.292 79.7 11.1 75 15.8
2011-05-23 09:40:32 51°22.382 3°11.579 81.1 11.2 80 15.3
2011-05-23 09:41:32 51°22.42 3°11.871 79.6 11.3 77 15.3
2011-05-23 09:42:32 51°22.449 3°12.164 84.1 11.1 83 14.3
2011-05-23 09:43:32 51°22.49 3°12.455 78.9 11.3 74 13.8
2011-05-23 09:44:32 51°22.519 3°12.719 83.7 7.9 79 13
2011-05-23 09:45:32 51°22.536 3°12.891 86.3 5.5 78 12.5
2011-05-23 09:46:32 51°22.549 3°13.013 83.9 4 76 12.3
2011-05-23 09:47:32 51°22.57 3°13.121 87.7 4.3 83 11.9
2011-05-23 09:48:32 51°22.608 3°13.19 32.3 4.1 7 11.8
2011-05-23 09:49:32 51°22.651 3°13.17 354.9 1.7 312 11.7
2011-05-23 09:50:32 51°22.656 3°13.139 339 1 274 11.7
2011-05-23 09:51:33 51°22.657 3°13.11 344.6 1.1 277 11.6
2011-05-23 09:52:32 51°22.662 3°13.081 346.7 1 287 11.8
2011-05-23 09:53:32 51°22.667 3°13.053 347.2 1.1 282 11.7
2011-05-23 09:54:32 51°22.671 3°13.026 347.5 1 288 11.9
2011-05-23 09:55:32 51°22.676 3°12.999 344.3 1.1 288 11.9
2011-05-23 09:56:32 51°22.682 3°12.97 337.9 1.2 287 12
2011-05-23 09:57:32 51°22.688 3°12.942 333 1.1 290 12.2
2011-05-23 09:58:32 51°22.694 3°12.915 332.5 1.2 294 11.9
2011-05-23 09:59:32 51°22.728 3°12.877 8 3.7 350 11.9
2011-05-23 10:00:33 51°22.763 3°12.923 90.8 3 97 11.6
2011-05-23 10:01:32 51°22.702 3°13.051 132.2 8.6 138 11.7
2011-05-23 10:02:32 51°22.576 3°13.208 139.4 8.4 145 11.5
2011-05-23 10:03:32 51°22.499 3°13.283 122 3.6 123 11.4
2011-05-23 10:04:32 51°22.509 3°13.403 69.9 5.2 50 11.1
2011-05-23 10:05:32 51°22.585 3°13.412 5.7 3.6 342 11.3
2011-05-23 10:06:32 51°22.605 3°13.379 333.8 0.8 254 11.2
2011-05-23 10:07:36 51°22.601 3°13.358 352.8 0.8 264 5
2011-05-23 10:08:34 51°22.602 3°13.336 1 0.8 284 11.2
2011-05-23 10:09:33 51°22.607 3°13.315 359.2 0.9 293 11.3
2011-05-23 10:10:32 51°22.614 3°13.29 345.3 1.1 291 11.5
2011-05-23 10:11:33 51°22.62 3°13.261 336 1.1 291 11.4
2011-05-23 10:12:32 51°22.627 3°13.235 332.7 1.1 295 11.6
2011-05-23 10:13:32 51°22.634 3°13.208 329 1 294 11.2
2011-05-23 10:14:32 51°22.651 3°13.171 326.7 3.5 313 11.5
2011-05-23 10:15:32 51°22.729 3°13.081 345.5 8.3 333 11.4
2011-05-23 10:16:32 51°22.895 3°12.956 342.5 12.8 333 10.6
2011-05-23 10:17:32 51°23.088 3°12.789 340.6 13.2 332 10.7
2011-05-23 10:18:33 51°23.286 3°12.627 343.4 13.1 335 10.9
2011-05-23 10:19:32 51°23.481 3°12.486 343.7 13.1 334 11.1
2011-05-23 10:20:32 51°23.674 3°12.321 337.7 13.2 329 10.8
2011-05-23 10:21:32 51°23.854 3°12.113 328.9 13.4 320 11.6
2011-05-23 10:22:32 51°24.011 3°11.853 317.3 13.8 309 14.9
2011-05-23 10:23:32 51°24.133 3°11.537 302.4 14.1 295 16.7
2011-05-23 10:24:32 51°24.21 3°11.18 290.4 14.1 287 18
2011-05-23 10:25:32 51°24.279 3°10.821 291.5 14.1 287 18
2011-05-23 10:26:32 51°24.343 3°10.458 287.5 14.1 283 17
2011-05-23 10:27:33 51°24.394 3°10.086 285.8 14 282 14
2011-05-23 10:28:32 51°24.45 3°9.732 289.9 13.9 286 11.7
2011-05-23 10:29:32 51°24.509 3°9.377 286.6 13.7 282 10.5
2011-05-23 10:30:32 51°24.559 3°9.019 286.7 13.7 284 9.8
2011-05-23 10:31:32 51°24.619 3°8.671 288.1 13.5 284 9.3
2011-05-23 10:32:32 51°24.673 3°8.325 285.9 13.4 283 9.4
2011-05-23 10:33:32 51°24.724 3°7.98 288 13.3 285 9.7
2011-05-23 10:34:32 51°24.788 3°7.646 290 13.2 287 10
2011-05-23 10:35:32 51°24.851 3°7.31 289 13.1 287 9.9
2011-05-23 10:36:32 51°24.907 3°6.972 285.8 13.2 283 10.1
2011-05-23 10:37:32 51°24.973 3°6.639 291.2 13.2 289 10.1
2011-05-23 10:38:32 51°25.038 3°6.305 292.5 13.1 296 10.7
2011-05-23 10:39:32 51°25.167 3°6.031 327.2 12.7 328 11.3
2011-05-23 10:40:33 51°25.358 3°6.029 36.2 11.7 36 10.5
2011-05-23 10:41:32 51°25.427 3°6.301 70.7 11.5 68 10.3
2011-05-23 10:42:32 51°25.553 3°6.54 45.9 12 50 9.5
2011-05-23 10:43:32 51°25.694 3°6.767 47.2 11.9 45 9.5
2011-05-23 10:44:32 51°25.83 3°7.005 49.6 12.2 50 9.5
2011-05-23 10:45:33 51°25.965 3°7.251 50.1 12 47 8.4
2011-05-23 10:46:32 51°26.085 3°7.496 58.9 11.9 63 8.3
2011-05-23 10:47:32 51°26.169 3°7.787 61 12.2 62 8.9
2011-05-23 10:48:32 51°26.268 3°8.072 63.6 12.4 62 8.9
2011-05-23 10:49:32 51°26.347 3°8.332 67.2 8.5 64 9.6
2011-05-23 10:50:32 51°26.408 3°8.48 35.4 5 26 9.8
2011-05-23 10:51:32 51°26.458 3°8.496 356 1.5 348 9.1
2011-05-23 10:52:32 51°26.463 3°8.494 335.1 0.2 101 9.8
2011-05-23 10:53:32 51°26.462 3°8.499 339 0.2 119 9.7
2011-05-23 10:54:32 51°26.462 3°8.504 340.7 0.2 87 9.9
2011-05-23 10:55:32 51°26.461 3°8.506 338.8 0.2 154 9.3
2011-05-23 10:56:32 51°26.459 3°8.512 342.7 0.2 117 9.8
2011-05-23 10:57:32 51°26.457 3°8.516 342.1 0.1 132 9.8
2011-05-23 10:58:32 51°26.456 3°8.519 341 0.2 86 9.5
2011-05-23 10:59:32 51°26.455 3°8.524 337.5 0.2 131 9.3
2011-05-23 11:00:32 51°26.454 3°8.529 336.1 0.3 89 9.8
2011-05-23 11:01:32 51°26.455 3°8.533 334 0.3 91 9.7
2011-05-23 11:02:32 51°26.455 3°8.539 333 0.2 107 9.6
2011-05-23 11:03:32 51°26.454 3°8.544 332.5 0.3 99 9.5
2011-05-23 11:04:32 51°26.452 3°8.55 333.4 0.3 114 9.7
2011-05-23 11:05:32 51°26.45 3°8.557 336.8 0.3 124 9.7
2011-05-23 11:06:32 51°26.446 3°8.564 338.8 0.3 114 9.8
2011-05-23 11:07:32 51°26.442 3°8.572 341.6 0.4 147 9.5
2011-05-23 11:08:32 51°26.448 3°8.574 355.2 2.5 358 9.6
2011-05-23 11:09:32 51°26.492 3°8.647 82.3 5 96 9.6
2011-05-23 11:10:32 51°26.42 3°8.721 173.8 7.4 178 9.5
2011-05-23 11:11:32 51°26.276 3°8.575 232.8 12.2 236 9.6
2011-05-23 11:12:33 51°26.193 3°8.262 257.3 12.8 256 9.1
2011-05-23 11:13:32 51°26.139 3°7.938 252.7 12.9 249 8.8
2011-05-23 11:14:32 51°26.088 3°7.607 264.5 12.8 263 8.8
2011-05-23 11:15:32 51°26.095 3°7.273 285 12.6 283 8.5
2011-05-23 11:16:32 51°26.202 3°6.992 313.6 12.4 308 10.1
2011-05-23 11:17:32 51°26.327 3°6.733 312.5 12.3 307 10.4
2011-05-23 11:18:32 51°26.451 3°6.47 312.2 12.4 307 10.8
2011-05-23 11:19:32 51°26.584 3°6.22 318.4 12.3 312 11.2
2011-05-23 11:20:32 51°26.72 3°5.975 316.7 12.3 313 11.2
2011-05-23 11:21:33 51°26.853 3°5.719 314 12.3 308 11.4
2011-05-23 11:22:32 51°26.979 3°5.465 314.5 12.3 310 12.2
2011-05-23 11:23:33 51°27.113 3°5.207 316.6 12.4 312 13.3
2011-05-23 11:24:32 51°27.247 3°4.964 316.2 12.4 311 13.8
2011-05-23 11:25:32 51°27.384 3°4.715 316.8 12.5 310 12.3
2011-05-23 11:26:32 51°27.526 3°4.475 326.2 12.4 322 12.8
2011-05-23 11:27:32 51°27.694 3°4.283 329.2 12.3 324 14.4
2011-05-23 11:28:32 51°27.851 3°4.069 323.8 12.4 318 16.7
2011-05-23 11:29:32 51°28.004 3°3.845 321.6 12.5 315 18.8
2011-05-23 11:30:32 51°28.142 3°3.627 322 8.6 316 20.2
2011-05-23 11:31:32 51°28.215 3°3.553 359.6 3.2 352 21.7
2011-05-23 11:32:32 51°28.251 3°3.539 355.7 1.2 328 21.6
2011-05-23 11:33:32 51°28.254 3°3.525 336.5 0.4 187 22
2011-05-23 11:34:32 51°28.248 3°3.518 331.8 0.6 217 21.6
2011-05-23 11:35:32 51°28.24 3°3.512 329.5 0.6 199 21.4
2011-05-23 11:36:32 51°28.233 3°3.507 329.6 0.5 192 21.7
2011-05-23 11:37:32 51°28.224 3°3.504 332.5 0.5 207 21.5
2011-05-23 11:38:32 51°28.218 3°3.499 332.5 0.4 207 21.2
2011-05-23 11:39:32 51°28.212 3°3.492 329.6 0.6 208 21.4
2011-05-23 11:40:32 51°28.204 3°3.487 331.5 0.5 205 21.3
2011-05-23 11:41:32 51°28.197 3°3.484 333.9 0.5 205 21.4
2011-05-23 11:42:32 51°28.189 3°3.482 336.8 0.5 200 21.4
2011-05-23 11:43:33 51°28.18 3°3.48 339.5 0.5 187 21.2
2011-05-23 11:44:32 51°28.173 3°3.475 338.7 0.5 196 21.1
2011-05-23 11:45:32 51°28.164 3°3.471 338.4 0.4 190 21.2
2011-05-23 11:46:32 51°28.157 3°3.467 336 0.5 196 21
2011-05-23 11:47:32 51°28.151 3°3.462 333.7 0.6 208 20.8
2011-05-23 11:48:32 51°28.144 3°3.459 334.4 0.6 199 20.9
2011-05-23 11:49:32 51°28.137 3°3.455 332.6 0.4 190 20.5
2011-05-23 11:50:32 51°28.13 3°3.45 329.9 0.4 204 21
2011-05-23 11:51:32 51°28.125 3°3.445 328.4 0.3 229 21.4
2011-05-23 11:52:32 51°28.12 3°3.438 328 0.4 188 20.9
2011-05-23 11:53:32 51°28.114 3°3.431 327.8 0.5 221 21.2
2011-05-23 11:54:32 51°28.108 3°3.425 330.1 0.5 221 21.1
2011-05-23 11:55:32 51°28.1 3°3.419 330.8 0.5 197 21
2011-05-23 11:56:32 51°28.093 3°3.414 331.8 0.5 208 20.9
2011-05-23 11:57:32 51°28.123 3°3.372 338.7 5.1 335 21
2011-05-23 11:58:32 51°28.2 3°3.425 62.5 6.1 66 21.6
2011-05-23 11:59:32 51°28.253 3°3.542 30.7 3.9 21 21.5
2011-05-23 12:00:32 51°28.304 3°3.525 348.1 2 329 22.1
2011-05-23 12:01:32 51°28.308 3°3.505 327.9 0.6 256 22.3
2011-05-23 12:02:32 51°28.304 3°3.493 320.1 0.5 229 21.9
2011-05-23 12:03:32 51°28.298 3°3.486 324.1 0.4 208 22.2
2011-05-23 12:04:32 51°28.29 3°3.481 332.9 0.6 200 22.2
2011-05-23 12:05:32 51°28.281 3°3.477 338.2 0.6 193 22.2
2011-05-23 12:06:32 51°28.282 3°3.459 325.4 2.1 301 22
2011-05-23 12:07:32 51°28.286 3°3.358 260.2 6.5 251 22.3
2011-05-23 12:08:32 51°28.195 3°3.12 237.9 13.1 236 22.4
2011-05-23 12:09:32 51°28.068 3°2.819 238.2 13.8 237 22.2
2011-05-23 12:10:32 51°27.963 3°2.493 247.6 13.8 245 22.4
2011-05-23 12:11:32 51°27.848 3°2.175 239.1 13.8 238 22.6
2011-05-23 12:12:32 51°27.723 3°1.866 234.8 13.8 234 21.6
2011-05-23 12:13:32 51°27.575 3°1.583 229.8 13.8 230 18.8
2011-05-23 12:14:32 51°27.434 3°1.285 237.4 14.2 237 16.8
2011-05-23 12:15:32 51°27.317 3°0.954 244.9 14.3 242 19.2
2011-05-23 12:16:32 51°27.213 3°0.615 252.3 14 250 24.1
2011-05-23 12:17:33 51°27.163 3°0.249 265.3 13.8 259 23.8
2011-05-23 12:18:32 51°27.114 2°59.892 261.7 14 256 23.7
2011-05-23 12:19:32 51°27.054 2°59.533 258.2 13.9 253 20.6
2011-05-23 12:20:32 51°26.996 2°59.175 262.4 13.8 258 19.4
2011-05-23 12:21:32 51°26.955 2°58.815 264.3 13.6 260 19.2
2011-05-23 12:22:32 51°26.906 2°58.459 262.5 13.7 258 17.7
2011-05-23 12:23:32 51°26.863 2°58.102 262.6 13.6 258 17.2
2011-05-23 12:24:33 51°26.809 2°57.743 260.4 13.7 257 16.6
2011-05-23 12:25:32 51°26.766 2°57.391 264.3 13.6 259 17.7
2011-05-23 12:26:32 51°26.726 2°57.034 264.1 13.7 261 19.3
2011-05-23 12:27:32 51°26.682 2°56.677 261.8 13.6 258 20.5
2011-05-23 12:28:32 51°26.628 2°56.324 259.2 13.6 255 22.4
2011-05-23 12:29:32 51°26.577 2°55.97 262.4 13.6 258 24.7
2011-05-23 12:30:32 51°26.535 2°55.615 263.8 13.6 260 24.9
2011-05-23 12:31:32 51°26.492 2°55.258 262.6 13.7 258 24.7
2011-05-23 12:32:32 51°26.44 2°54.902 260.1 13.7 257 25.4
2011-05-23 12:33:32 51°26.392 2°54.544 266.2 13.7 263 22
2011-05-23 12:34:32 51°26.367 2°54.178 267.9 13.8 263 27
2011-05-23 12:35:32 51°26.341 2°53.816 268 13.5 263 32.2
2011-05-23 12:36:32 51°26.307 2°53.454 264.5 13.7 261 32
2011-05-23 12:37:32 51°26.27 2°53.092 264.8 13.9 261 29.4
2011-05-23 12:38:32 51°26.242 2°52.727 269.4 13.9 264 26.7
2011-05-23 12:39:32 51°26.218 2°52.359 268.5 13.9 264 27.4
2011-05-23 12:40:32 51°26.187 2°51.992 264.1 14 260 26
2011-05-23 12:41:32 51°26.149 2°51.624 264.7 14 262 28.6
2011-05-23 12:42:32 51°26.119 2°51.259 267.9 13.7 264 23.1
2011-05-23 12:43:32 51°26.096 2°50.894 269 13.7 264 23.4
2011-05-23 12:44:32 51°26.068 2°50.53 265.7 13.8 262 23.4
2011-05-23 12:45:32 51°26.032 2°50.17 265.1 13.7 262 23.1
2011-05-23 12:46:32 51°26.008 2°49.808 269.7 13.7 267 23.3
2011-05-23 12:47:32 51°26.008 2°49.444 273.7 13.7 270 23.4
2011-05-23 12:48:32 51°26 2°49.094 270.5 11.3 266 24.2
2011-05-23 12:49:32 51°25.985 2°48.86 266.5 7.6 263 23.8
2011-05-23 12:50:32 51°25.972 2°48.673 269.2 6.4 265 24.3
2011-05-23 12:51:32 51°25.979 2°48.568 310.7 1.4 272 23.9
2011-05-23 12:52:32 51°25.974 2°48.553 332.5 0.4 248 24
2011-05-23 12:53:32 51°25.971 2°48.543 342.6 0.3 213 24.3
2011-05-23 12:54:32 51°25.967 2°48.538 346.7 0.4 223 23.8
2011-05-23 12:55:32 51°25.962 2°48.53 341.4 0.5 219 23.6
2011-05-23 12:56:32 51°25.955 2°48.522 334.2 0.6 215 23.8
2011-05-23 12:57:32 51°25.95 2°48.516 335.1 0.6 296 24
2011-05-23 12:58:32 51°25.968 2°48.452 292.6 4.3 279 23.7
2011-05-23 12:59:32 51°25.933 2°48.306 239.6 8.2 237 23.2
2011-05-23 13:00:32 51°25.837 2°48.047 241 13.2 239 23.8
2011-05-23 13:01:32 51°25.737 2°47.727 245.5 13.5 245 23.7
2011-05-23 13:02:33 51°25.635 2°47.4 243.2 13.5 243 25.5
2011-05-23 13:03:32 51°25.532 2°47.092 242.5 13.2 242 25.5
2011-05-23 13:04:32 51°25.425 2°46.78 241.8 13.4 241 23.8
2011-05-23 13:05:32 51°25.324 2°46.46 245.8 13.5 243 24.7
2011-05-23 13:06:32 51°25.222 2°46.135 245.2 13.7 244 26.4
2011-05-23 13:07:32 51°25.116 2°45.815 242.2 13.5 240 25.8
2011-05-23 13:08:32 51°25.003 2°45.501 242.6 13.8 241 26.8
2011-05-23 13:09:32 51°24.891 2°45.181 242.2 13.7 240 24.2
2011-05-23 13:10:32 51°24.782 2°44.86 245 13.8 243 24.5
2011-05-23 13:11:32 51°24.68 2°44.535 244 13.6 242 26.7
2011-05-23 13:12:32 51°24.568 2°44.214 241.5 13.8 240 22.3
2011-05-23 13:13:33 51°24.455 2°43.889 243.3 13.6 241 25
2011-05-23 13:14:32 51°24.353 2°43.568 245.4 13.7 243 23.7
2011-05-23 13:15:32 51°24.249 2°43.242 243.4 13.6 241 25.7
2011-05-23 13:16:32 51°24.136 2°42.927 241.1 13.8 240 23.4
2011-05-23 13:16:52 51°24.1 2°42.821 243.1 13.6 242 26.8
2011-05-23 13:17:52 51°24.005 2°42.496 247.8 13.3 247 23.3
2011-05-23 13:18:52 51°23.908 2°42.174 243.5 13.5 241 25.9
2011-05-23 13:19:52 51°23.805 2°41.858 245.5 13.4 244 27.6
2011-05-23 13:20:52 51°23.712 2°41.532 247.1 13.2 245 27.4
2011-05-23 13:21:52 51°23.617 2°41.212 244.9 13.4 242 28
2011-05-23 13:22:53 51°23.508 2°40.896 243.7 13.5 242 29.2
2011-05-23 13:23:52 51°23.407 2°40.584 244.7 13.4 244 29.2
2011-05-23 13:24:52 51°23.312 2°40.259 246.5 13.6 246 30.2
2011-05-23 13:25:52 51°23.211 2°39.938 244.2 13.3 243 30.1
2011-05-23 13:26:52 51°23.107 2°39.617 244 13.5 243 29.7
2011-05-23 13:27:52 51°23.008 2°39.293 246.4 13.6 245 30.1
2011-05-23 13:28:52 51°22.908 2°38.972 244.4 13.5 243 30.7
2011-05-23 13:29:52 51°22.799 2°38.658 241.7 13.4 240 30.7
2011-05-23 13:30:52 51°22.687 2°38.346 243.3 13.5 241 31.3
2011-05-23 13:31:52 51°22.584 2°38.027 244.9 13.5 244 30.6
2011-05-23 13:32:52 51°22.482 2°37.711 244.1 13.3 243 30.3
2011-05-23 13:33:53 51°22.368 2°37.401 241.1 13.4 239 30.8
2011-05-23 13:34:52 51°22.26 2°37.094 243.8 13.4 242 30.8
2011-05-23 13:35:52 51°22.16 2°36.779 244.7 13.2 242 30.7
2011-05-23 13:36:52 51°22.054 2°36.473 241.8 12.9 241 31.5
2011-05-23 13:37:52 51°21.949 2°36.162 242.4 13.5 243 31.8
2011-05-23 13:38:52 51°21.85 2°35.848 245.3 13.3 244 32.3
2011-05-23 13:39:52 51°21.749 2°35.533 240.4 13.4 240 31.9
2011-05-23 13:40:52 51°21.635 2°35.229 238.4 13.3 238 33.2
2011-05-23 13:41:52 51°21.524 2°34.922 240.1 13.4 241 32.6
2011-05-23 13:42:52 51°21.417 2°34.618 240.1 13.1 240 35.5
2011-05-23 13:43:52 51°21.312 2°34.31 241.1 13.5 241 30.2
2011-05-23 13:44:52 51°21.207 2°33.996 242.1 13.5 242 31.8
2011-05-23 13:45:52 51°21.098 2°33.689 238.9 13.2 240 32.9
2011-05-23 13:46:52 51°20.986 2°33.386 239.5 13.4 239 31.9
2011-05-23 13:47:52 51°20.883 2°33.074 242.3 13.1 241 31.3
2011-05-23 13:48:52 51°20.775 2°32.765 240.8 13.2 242 31
2011-05-23 13:49:52 51°20.67 2°32.461 239.4 13.3 240 31.2
2011-05-23 13:50:52 51°20.559 2°32.159 239 13.4 239 31.9
2011-05-23 13:51:52 51°20.453 2°31.853 241.8 13 243 28.6
2011-05-23 13:52:52 51°20.349 2°31.548 241 13.2 241 24.3
2011-05-23 13:53:52 51°20.243 2°31.245 239.3 13 241 21.6
2011-05-23 13:54:52 51°20.141 2°30.939 244 13.3 245 17.9
2011-05-23 13:55:53 51°20.064 2°30.611 252 13 252 16.8
2011-05-23 13:56:52 51°20 2°30.295 252.5 12 256 14.1
2011-05-23 13:57:53 51°19.993 2°30.052 294.8 5.8 297 13.4
2011-05-23 13:58:52 51°20.019 2°30.007 332.6 0.2 194 14.9
2011-05-23 13:59:56 51°20.01 2°30.013 353.5 0.3 160 -999
2011-05-23 14:00:55 51°20.009 2°30.019 356.4 0.5 88 15
2011-05-23 14:01:53 51°20.01 2°30.025 357.1 0.4 60 13.8
2011-05-23 14:02:52 51°20.019 2°30.031 351.6 1.7 358 13
2011-05-23 14:03:53 51°20.067 2°30.089 71.3 4.8 77 14.6
2011-05-23 14:04:52 51°20.021 2°30.246 118.4 9.9 116 15.3
2011-05-23 14:05:52 51°19.912 2°30.507 126.2 12.9 124 16.9
2011-05-23 14:06:52 51°19.767 2°30.755 130.7 12.8 137 19.9
2011-05-23 14:07:52 51°19.625 2°31.006 130 12.9 133 26.9
2011-05-23 14:08:52 51°19.488 2°31.257 130 12.3 128 31.4
2011-05-23 14:09:52 51°19.356 2°31.514 126.6 12.4 129 30.8
2011-05-23 14:10:52 51°19.243 2°31.719 129.6 9.1 129 32
2011-05-23 14:11:52 51°19.149 2°31.892 128.1 8.5 131 32
2011-05-23 14:12:52 51°19.057 2°32.064 128.8 8.5 128 31.3
2011-05-23 14:13:52 51°18.967 2°32.239 128.9 8.6 133 31.6
2011-05-23 14:14:52 51°18.877 2°32.416 128.6 8.5 126 31.8
2011-05-23 14:15:52 51°18.784 2°32.592 130.7 8.7 129 30.9
2011-05-23 14:16:52 51°18.693 2°32.77 126.8 8.6 128 29.6
2011-05-23 14:17:52 51°18.6 2°32.962 125.7 10.6 127 27.2
2011-05-23 14:18:52 51°18.476 2°33.216 123.5 12.9 121 23.9
2011-05-23 14:19:52 51°18.349 2°33.479 128.1 12.8 131 19.6
2011-05-23 14:20:52 51°18.214 2°33.736 127.2 12.5 137 25.1
2011-05-23 14:21:52 51°18.089 2°34.002 122.4 12.5 127 28.5
2011-05-23 14:22:53 51°17.949 2°34.258 133 12.2 131 29.4
2011-05-23 14:23:52 51°17.815 2°34.512 130.8 12.9 125 25.1
2011-05-23 14:24:52 51°17.66 2°34.745 137.6 12.8 138 17.3
2011-05-23 14:25:53 51°17.492 2°34.973 141.2 13 136 13.8
2011-05-23 14:26:52 51°17.333 2°35.202 136 13 139 12.9
2011-05-23 14:27:52 51°17.17 2°35.434 139.1 13.1 140 14.1
2011-05-23 14:28:52 51°17.004 2°35.665 138.1 13.3 136 19.8
2011-05-23 14:29:52 51°16.842 2°35.896 136.8 13.2 135 27.8
2011-05-23 14:30:52 51°16.682 2°36.126 137.4 12.8 137 27.5
2011-05-23 14:31:53 51°16.56 2°36.407 114.9 12.9 113 28
2011-05-23 14:32:52 51°16.542 2°36.712 79.8 9.9 79 28.1
2011-05-23 14:33:52 51°16.574 2°36.89 60.1 5.1 56 28.1
2011-05-23 14:34:52 51°16.625 2°36.947 10.1 2.3 19 28.3
2011-05-23 14:35:52 51°16.638 2°36.968 343.6 0.9 57 28
2011-05-23 14:36:53 51°16.645 2°36.994 343.6 1.2 70 28.6
2011-05-23 14:37:52 51°16.651 2°37.021 350.5 1.2 69 28.5
2011-05-23 14:38:52 51°16.657 2°37.05 353 1.2 67 28.4
2011-05-23 14:39:52 51°16.664 2°37.08 352.8 1.1 69 27.9
2011-05-23 14:40:52 51°16.671 2°37.11 354.4 1.4 73 28.4
2011-05-23 14:41:52 51°16.679 2°37.139 353.4 1.2 69 28.3
2011-05-23 14:42:52 51°16.687 2°37.17 350.8 1.3 66 28.2
2011-05-23 14:43:52 51°16.695 2°37.201 348.9 1.2 66 28
2011-05-23 14:44:52 51°16.703 2°37.231 347.5 1.2 66 28.1
2011-05-23 14:45:52 51°16.711 2°37.264 346.5 1.4 69 28.5
2011-05-23 14:46:52 51°16.72 2°37.298 347 1.4 70 28.8
2011-05-23 14:47:52 51°16.729 2°37.333 350.4 1.3 68 28
2011-05-23 14:48:52 51°16.74 2°37.366 351 1.8 38 28.3
2011-05-23 14:49:52 51°16.78 2°37.355 302 2.8 322 28.4
2011-05-23 14:50:52 51°16.789 2°37.294 238.2 2.5 234 28.5
2011-05-23 14:51:52 51°16.704 2°37.293 176.7 8.5 171 29.3
2011-05-23 14:52:52 51°16.546 2°37.314 184.8 9.8 180 27.6
2011-05-23 14:53:52 51°16.386 2°37.296 189.8 9.5 185 27
2011-05-23 14:54:52 51°16.225 2°37.275 190.5 9.9 184 23
2011-05-23 14:55:52 51°16.062 2°37.252 191.8 9.8 183 16.7
2011-05-23 14:56:52 51°15.88 2°37.278 177.5 12 172 13.6
2011-05-23 14:57:52 51°15.683 2°37.327 177.4 11.9 170 14.1
2011-05-23 14:58:52 51°15.488 2°37.351 185.2 11.7 179 13.8
2011-05-23 14:59:52 51°15.297 2°37.356 186.1 11.6 177 12.2
2011-05-23 15:00:52 51°15.103 2°37.371 184.6 11.6 178 13.4
2011-05-23 15:01:52 51°14.907 2°37.391 184.4 11.7 180 12.8
2011-05-23 15:02:52 51°14.712 2°37.407 184.2 11.7 177 13
2011-05-23 15:03:52 51°14.516 2°37.427 184.1 11.8 176 13.5
2011-05-23 15:04:52 51°14.32 2°37.44 185.9 11.7 179 16.1
2011-05-23 15:05:52 51°14.126 2°37.46 183.7 11.7 176 20.4
2011-05-23 15:06:52 51°13.932 2°37.462 189.5 11.6 182 21.5
2011-05-23 15:07:52 51°13.739 2°37.45 190 11.7 183 18.7
2011-05-23 15:08:52 51°13.545 2°37.436 189.5 11.7 183 11
2011-05-23 15:09:52 51°13.351 2°37.418 192.3 11.6 186 10.6
2011-05-23 15:10:52 51°13.16 2°37.371 196.7 11.7 190 12.1
2011-05-23 15:11:52 51°12.972 2°37.331 194.4 11.5 187 11.6
2011-05-23 15:12:52 51°12.782 2°37.294 194.7 11.6 187 13.1
2011-05-23 15:13:52 51°12.593 2°37.26 194 11.4 188 13.4
2011-05-23 15:14:52 51°12.404 2°37.217 196.1 11.6 188 13
2011-05-23 15:15:52 51°12.215 2°37.181 193.2 11.3 186 13
2011-05-23 15:16:52 51°12.029 2°37.134 198.9 11.4 192 13.6
2011-05-23 15:17:52 51°11.847 2°37.065 200.9 11.1 194 14.1
2011-05-23 15:18:52 51°11.669 2°36.986 202.2 11.1 196 14.3
2011-05-23 15:19:52 51°11.492 2°36.909 202.9 11 197 14.7
2011-05-23 15:20:52 51°11.315 2°36.825 203 11.1 197 14.9
2011-05-23 15:21:52 51°11.138 2°36.748 202.2 11.1 196 15.2
2011-05-23 15:22:52 51°10.96 2°36.673 202 10.9 195 15.1
2011-05-23 15:23:52 51°10.785 2°36.593 202.6 11 195 13.6
2011-05-23 15:24:52 51°10.608 2°36.519 201.6 11 195 12.4
2011-05-23 15:25:52 51°10.426 2°36.485 185.5 11.6 175 12
2011-05-23 15:26:52 51°10.259 2°36.642 134.8 12.7 123 18.4
2011-05-23 15:27:52 51°10.236 2°36.992 93 13.9 87 20.3
2011-05-23 15:28:52 51°10.259 2°37.366 89.9 14 86 20
2011-05-23 15:29:52 51°10.276 2°37.74 87.9 14.1 83 20.3
2011-05-23 15:30:52 51°10.306 2°38.117 89.1 14.8 86 19.3
2011-05-23 15:31:52 51°10.334 2°38.503 83.8 14.6 80 18.3
2011-05-23 15:32:52 51°10.397 2°38.88 77 14.8 74 18.3
2011-05-23 15:33:52 51°10.458 2°39.249 78.6 14.5 75 17.6
2011-05-23 15:34:52 51°10.514 2°39.625 81.4 14.7 78 17.1
2011-05-23 15:35:52 51°10.57 2°40.002 75.9 14.8 71 16.4
2011-05-23 15:36:52 51°10.657 2°40.371 70.3 14.5 68 15.9
2011-05-23 15:37:52 51°10.736 2°40.74 75.9 14.6 73 15.3
2011-05-23 15:38:52 51°10.805 2°41.112 76.3 14.8 74 15
2011-05-23 15:39:52 51°10.871 2°41.483 77.7 14.2 76 14.8
2011-05-23 15:40:52 51°10.939 2°41.85 73.1 13.5 71 14.9
2011-05-23 15:41:52 51°11.005 2°42.094 50.6 7.3 50 15
2011-05-23 15:42:52 51°11.09 2°42.137 325.4 3.8 355 15
2011-05-23 15:43:52 51°11.12 2°42.171 329.6 2.5 61 14.9
2011-05-23 15:44:52 51°11.136 2°42.228 353.6 2.5 67 14.7
2011-05-23 15:45:52 51°11.15 2°42.287 9 2.3 68 14.7
2011-05-23 15:46:52 51°11.173 2°42.344 355.7 3.5 24 14.8
2011-05-23 15:47:52 51°11.219 2°42.313 275.2 3 278 14.5
2011-05-23 15:48:52 51°11.166 2°42.252 215.1 5.4 202 14.6
2011-05-23 15:49:52 51°11.119 2°42.194 243.8 2.3 238 14.8
2011-05-23 15:50:52 51°11.109 2°42.151 257.3 1.6 260 14.9
2011-05-23 15:51:52 51°11.113 2°42.121 273.1 1 323 14.9
2011-05-23 15:52:52 51°11.133 2°42.13 298.7 1.8 39 14.8
2011-05-23 15:53:52 51°11.161 2°42.153 299.6 1.9 9 14.4
2011-05-23 15:54:52 51°11.178 2°42.146 251.3 0.7 237 14.8
2011-05-23 15:55:52 51°11.162 2°42.156 217.1 1.3 133 15
2011-05-23 15:56:52 51°11.147 2°42.168 241.6 0.7 114 14.8
2011-05-23 15:57:52 51°11.141 2°42.185 244 1.3 221 14.8
2011-05-23 15:58:52 51°11.114 2°42.093 248.9 4.3 248 14.8
2011-05-23 15:59:52 51°11.103 2°42.033 260.7 1.1 275 14.8
2011-05-23 16:00:52 51°11.108 2°42.03 264.5 0.6 31 14.8
2011-05-23 16:01:52 51°11.118 2°42.048 267.7 1.1 53 14.8
2011-05-23 16:02:52 51°11.129 2°42.072 267.4 1.2 54 15.1
2011-05-23 16:03:52 51°11.139 2°42.097 259.4 1 62 14.8
2011-05-23 16:04:52 51°11.13 2°42.117 200.7 2.4 152 14.7
2011-05-23 16:05:52 51°11.091 2°42.233 111.2 8.1 97 15.1
2011-05-23 16:06:52 51°11.098 2°42.537 89.3 14 84 15.1
2011-05-23 16:07:52 51°11.157 2°42.909 74.1 14.7 74 15.1
2011-05-23 16:08:52 51°11.221 2°43.281 77.1 14.7 76 15.2
2011-05-23 16:09:52 51°11.277 2°43.66 78.3 14.9 75 15
2011-05-23 16:10:52 51°11.345 2°44.037 75 15 71 15
2011-05-23 16:11:52 51°11.415 2°44.406 76.4 15 73 15
2011-05-23 16:12:52 51°11.488 2°44.777 73.6 15 69 15
2011-05-23 16:13:52 51°11.575 2°45.143 72.7 15.1 71 15.1
2011-05-23 16:14:52 51°11.669 2°45.5 68.6 14.9 68 15
2011-05-23 16:15:52 51°11.765 2°45.859 67.9 14.5 68 15
2011-05-23 16:16:52 51°11.855 2°46.217 69.4 14.8 67 15.1
2011-05-23 16:17:52 51°11.945 2°46.586 70.8 15 69 15.2
2011-05-23 16:18:52 51°12.037 2°46.953 70.1 15.1 67 15.1
2011-05-23 16:19:52 51°12.131 2°47.315 71.7 14.8 71 14.8
2011-05-23 16:20:52 51°12.222 2°47.681 71.3 15.4 69 14.8
2011-05-23 16:21:52 51°12.315 2°48.05 68.2 15.4 68 14.6
2011-05-23 16:22:52 51°12.411 2°48.422 73.4 15.2 70 14.4
2011-05-23 16:23:52 51°12.505 2°48.792 70.2 15 66 14.3
2011-05-23 16:24:52 51°12.6 2°49.158 68.3 14.7 65 14
2011-05-23 16:25:52 51°12.709 2°49.509 63.7 14.6 60 13.6
2011-05-23 16:26:52 51°12.824 2°49.854 64.3 14.9 63 13.5
2011-05-23 16:27:52 51°12.936 2°50.207 64.9 14.8 62 13.3
2011-05-23 16:28:52 51°13.059 2°50.546 62.3 14.7 59 13.1
2011-05-23 16:29:52 51°13.181 2°50.885 63.3 14.8 60 13.2
2011-05-23 16:30:52 51°13.29 2°51.228 66.4 14.6 64 12.8
2011-05-23 16:31:52 51°13.402 2°51.569 65.6 14.4 63 12.8
2011-05-23 16:32:52 51°13.522 2°51.907 63 14.9 57 12.7
2011-05-23 16:33:52 51°13.636 2°52.256 65.3 14.7 63 12.3
2011-05-23 16:34:52 51°13.759 2°52.594 61.1 14.7 59 12.2
2011-05-23 16:35:52 51°13.876 2°52.936 62.4 14.4 59 12
2011-05-23 16:36:52 51°14.025 2°53.239 51.9 14.6 47 11.8
2011-05-23 16:37:52 51°14.19 2°53.526 49.2 14.8 47 11.6
2011-05-23 16:38:52 51°14.345 2°53.821 54.5 14.6 52 11.6
2011-05-23 16:39:52 51°14.5 2°54.122 61.5 14.8 59 12
2011-05-23 16:40:52 51°14.595 2°54.478 75.7 15 71 12.3
2011-05-23 16:41:52 51°14.585 2°54.843 116.5 13.7 113 13.8
2011-05-23 16:42:52 51°14.438 2°55.076 150.8 11.9 144 12
2011-05-23 16:43:55 51°14.283 2°55.257 146.2 10.2 144 -999
2011-05-23 16:44:56 51°14.154 2°55.389 151.6 8.3 151 -999
2011-05-23 16:45:55 51°14.035 2°55.481 156.8 7.6 155 -999
2011-05-23 16:46:55 51°13.933 2°55.556 158 6.4 156 13
2011-05-23 16:47:54 51°13.831 2°55.63 155.6 6.7 152 13.1
2011-05-23 16:48:53 51°13.75 2°55.726 140.8 5.8 137 12.6
2011-05-23 16:49:53 51°13.699 2°55.818 127.8 3.9 125 12.5
2011-05-23 16:50:52 51°13.665 2°55.898 125.2 3.7 122 11.5
2011-05-23 16:51:52 51°13.644 2°55.979 105.3 2.9 104 10.5